Prince Madog — ZNLJ5 — position and weather

sailwx.info

Track history (hours):
 
Tides and Currents Weather Stations Pressure Air Temp Water Temp Dewpoint Dewpoint Depression Visibility Wind Speed Wind Dir Waves Ship Positions

Oceanographic research ship Prince Madog (UK)

Detailed information on ship capabilities available from University of Delaware's Ocean Information Center.

Last reported at 2017-Sep-26 14:48 UTC. Time now 2017-Sep-26 18:13 UTC.
Position N 53°19' W 004°02'.

Length 35 m; draft 3.9 m.

Type: Ship. MMSI: 235234000.

Date/timePositionNaut miles runAvg speedWind from/ knotsBaromVisibWave heightAir tempDewpointWater temp
2017-Sep-26 14:48N 53°19' W 004°02'3 9.0
2017-Sep-26 14:29N 53°16' W 004°05'3 6.7
2017-Sep-26 14:00N 53°14' W 004°08'  
2017-Sep-21 10:14N 53°00' W 004°47'2 9.8
2017-Sep-21 09:59N 52°58' W 004°47'9 0.2
2017-Sep-19 17:39N 52°49' W 004°47'2 0.3
2017-Sep-19 12:27N 52°47' W 004°50'2 1.0
2017-Sep-19 10:35N 52°46' W 004°52'0 0.7
2017-Sep-19 10:10N 52°47' W 004°52'0 0.0
2017-Sep-19 09:33N 52°47' W 004°52'0 0.1
2017-Sep-19 09:24N 52°47' W 004°52'1 1.5
2017-Sep-19 08:41N 52°48' W 004°53'1 0.1
2017-Sep-18 22:21N 52°47' W 004°52'0 0.1
2017-Sep-18 21:07N 52°46' W 004°52'0 0.8
2017-Sep-18 20:54N 52°47' W 004°52'0 0.6
2017-Sep-18 20:07N 52°47' W 004°51'2 0.7
2017-Sep-18 17:11N 52°48' W 004°49'3 1.1
2017-Sep-18 14:38N 52°46' W 004°52'6 0.8
2017-Sep-18 06:34N 52°53' W 004°50'1 6.4
2017-Sep-18 06:25N 52°54' W 004°50'3 6.7
2017-Sep-18 05:57N 52°57' W 004°51'37 1.7
2017-Sep-17 08:06N 53°19' W 004°02'1 8.7
2017-Sep-17 08:00N 53°18' W 004°02'4 7.3
2017-Sep-17 07:30N 53°15' W 004°06'  
Track history (hours):
 
Tides and Currents Weather Stations Pressure Air Temp Water Temp Dewpoint Dewpoint Depression Visibility Wind Speed Wind Dir Waves Ship Positions

Oceanographic research ship Prince Madog (UK)

Detailed information on ship capabilities available from University of Delaware's Ocean Information Center.

Last reported at 2017-Sep-26 14:48 UTC. Time now 2017-Sep-26 18:13 UTC.
Position N 53°19' W 004°02'.

Length 35 m; draft 3.9 m.

Type: Ship. MMSI: 235234000.

Date/timePositionNaut miles runAvg speedWind from/ knotsBaromVisibWave heightAir tempDewpointWater temp
2017-Sep-26 14:48N 53°19' W 004°02'3 9.0
2017-Sep-26 14:29N 53°16' W 004°05'3 6.7
2017-Sep-26 14:00N 53°14' W 004°08'  
2017-Sep-21 10:14N 53°00' W 004°47'2 9.8
2017-Sep-21 09:59N 52°58' W 004°47'9 0.2
2017-Sep-19 17:39N 52°49' W 004°47'2 0.3
2017-Sep-19 12:27N 52°47' W 004°50'2 1.0
2017-Sep-19 10:35N 52°46' W 004°52'0 0.7
2017-Sep-19 10:10N 52°47' W 004°52'0 0.0
2017-Sep-19 09:33N 52°47' W 004°52'0 0.1
2017-Sep-19 09:24N 52°47' W 004°52'1 1.5
2017-Sep-19 08:41N 52°48' W 004°53'1 0.1
2017-Sep-18 22:21N 52°47' W 004°52'0 0.1
2017-Sep-18 21:07N 52°46' W 004°52'0 0.8
2017-Sep-18 20:54N 52°47' W 004°52'0 0.6
2017-Sep-18 20:07N 52°47' W 004°51'2 0.7
2017-Sep-18 17:11N 52°48' W 004°49'3 1.1
2017-Sep-18 14:38N 52°46' W 004°52'6 0.8
2017-Sep-18 06:34N 52°53' W 004°50'1 6.4
2017-Sep-18 06:25N 52°54' W 004°50'3 6.7
2017-Sep-18 05:57N 52°57' W 004°51'37 1.7
2017-Sep-17 08:06N 53°19' W 004°02'1 8.7
2017-Sep-17 08:00N 53°18' W 004°02'4 7.3
2017-Sep-17 07:30N 53°15' W 004°06'  

Dump ship's entire track history